createdAt,value
2023-05-09T00:00:45.535Z,63.40
2023-05-09T00:03:12.823Z,65.10
2023-05-09T00:05:39.784Z,60.80
2023-05-09T00:08:06.773Z,67.90
2023-05-09T00:10:33.310Z,59.50
2023-05-09T00:13:00.909Z,61.60
2023-05-09T00:15:28.851Z,64.50
2023-05-09T00:17:55.486Z,64.30
2023-05-09T00:20:22.222Z,62.80
2023-05-09T00:22:48.748Z,68.40
2023-05-09T00:25:15.608Z,61.30
2023-05-09T00:27:42.366Z,59.30
2023-05-09T00:30:09.197Z,62.70
2023-05-09T00:32:36.119Z,69.10
2023-05-09T00:35:03.122Z,62.10
2023-05-09T00:37:31.270Z,63.10
2023-05-09T00:39:57.922Z,60.00
2023-05-09T00:42:24.740Z,66.90
2023-05-09T00:44:51.363Z,58.10
2023-05-09T00:47:18.033Z,57.70
2023-05-09T00:49:44.759Z,59.50
2023-05-09T00:52:11.402Z,63.90
2023-05-09T00:54:38.135Z,61.80
2023-05-09T00:57:04.737Z,69.90
2023-05-09T00:59:31.337Z,61.10
2023-05-09T01:01:58.167Z,63.50
2023-05-09T01:04:24.878Z,73.00
2023-05-09T01:07:02.902Z,61.40
2023-05-09T01:09:43.081Z,65.10
2023-05-09T01:12:49.902Z,65.40
2023-05-09T01:15:45.971Z,63.00
2023-05-09T01:18:26.190Z,61.00
2023-05-09T01:21:03.612Z,60.60
2023-05-09T01:23:45.284Z,69.90
2023-05-09T01:26:34.880Z,69.40
2023-05-09T01:29:40.303Z,60.70
2023-05-09T01:32:15.622Z,63.20
2023-05-09T01:34:44.699Z,62.90
2023-05-09T01:37:14.649Z,63.70
2023-05-09T01:39:49.164Z,61.90
2023-05-09T01:42:18.821Z,58.00
2023-05-09T01:44:47.192Z,68.10
2023-05-09T01:47:16.496Z,69.10
2023-05-09T01:49:44.470Z,75.40
2023-05-09T01:52:16.693Z,61.10
2023-05-09T01:54:48.132Z,65.50
2023-05-09T01:57:15.479Z,65.70
2023-05-09T01:59:45.192Z,58.50
2023-05-09T02:02:12.788Z,63.90
2023-05-09T02:04:43.194Z,61.10
2023-05-09T02:07:11.788Z,62.00
2023-05-09T02:09:38.418Z,85.00
2023-05-09T02:12:05.204Z,65.20
2023-05-09T02:14:32.261Z,67.10
2023-05-09T02:17:06.937Z,63.80
2023-05-09T02:19:35.596Z,64.40
2023-05-09T02:22:04.811Z,72.00
2023-05-09T02:24:33.680Z,64.10
2023-05-09T02:27:03.247Z,61.90
2023-05-09T02:32:01.508Z,64.50
2023-05-09T02:34:28.348Z,63.60
2023-05-09T02:36:55.825Z,68.10
2023-05-09T02:39:22.965Z,60.70
2023-05-09T02:41:49.832Z,59.20
2023-05-09T02:44:16.430Z,63.70
2023-05-09T02:46:42.941Z,56.30
2023-05-09T02:49:11.403Z,57.60
2023-05-09T02:51:43.548Z,56.00
2023-05-09T02:54:10.084Z,53.50
2023-05-09T02:56:36.668Z,51.90
2023-05-09T02:59:03.198Z,49.30
2023-05-09T03:01:29.824Z,46.20
2023-05-09T03:03:56.409Z,47.10
2023-05-09T03:06:23.606Z,45.20
2023-05-09T03:08:50.136Z,45.60
2023-05-09T03:11:17.201Z,49.70
2023-05-09T03:13:45.669Z,49.70
2023-05-09T03:16:15.085Z,46.50
2023-05-09T03:18:42.140Z,42.40
2023-05-09T03:21:09.927Z,48.60
2023-05-09T03:23:36.956Z,47.20
2023-05-09T03:26:06.049Z,44.50
2023-05-09T03:28:32.963Z,47.10
2023-05-09T03:31:01.681Z,48.80
2023-05-09T03:33:28.963Z,46.50
2023-05-09T03:35:55.597Z,46.90
2023-05-09T03:38:24.368Z,42.30
2023-05-09T03:40:51.440Z,41.00
2023-05-09T03:43:18.041Z,47.20
2023-05-09T03:45:44.728Z,42.30
2023-05-09T03:48:12.039Z,43.70
2023-05-09T03:50:43.468Z,39.30
2023-05-09T03:53:10.697Z,42.00
2023-05-09T03:55:37.593Z,47.40
2023-05-09T03:58:04.501Z,51.60
2023-05-09T04:00:31.516Z,51.60
2023-05-09T04:03:03.956Z,48.30
2023-05-09T04:05:35.606Z,46.60
2023-05-09T04:08:03.565Z,48.30
2023-05-09T04:10:32.049Z,49.30
2023-05-09T04:12:58.963Z,48.90
2023-05-09T04:15:25.679Z,52.00
2023-05-09T04:17:52.271Z,43.10
2023-05-09T04:20:19.009Z,47.30
2023-05-09T04:22:47.071Z,42.10
2023-05-09T04:25:16.119Z,50.00
2023-05-09T04:27:42.954Z,47.50
2023-05-09T04:30:10.437Z,46.40
2023-05-09T04:32:37.244Z,45.30
2023-05-09T04:35:05.056Z,47.10
2023-05-09T04:37:33.826Z,42.10
2023-05-09T04:40:01.544Z,41.70
2023-05-09T04:42:35.116Z,40.40
2023-05-09T04:45:02.071Z,42.30
2023-05-09T04:47:29.116Z,42.50
2023-05-09T04:49:55.678Z,41.00
2023-05-09T04:52:22.245Z,33.00
2023-05-09T04:54:48.932Z,31.80
2023-05-09T04:57:18.823Z,27.70
2023-05-09T04:59:50.539Z,28.80
2023-05-09T05:02:18.052Z,29.70
2023-05-09T05:04:47.623Z,29.70
2023-05-09T05:07:15.020Z,28.80
2023-05-09T05:09:43.467Z,30.00
2023-05-09T05:12:10.748Z,25.90
2023-05-09T05:14:38.333Z,29.50
2023-05-09T05:17:05.546Z,29.20
2023-05-09T05:19:32.189Z,33.20
2023-05-09T05:21:58.954Z,27.90
2023-05-09T05:24:28.052Z,28.70
2023-05-09T05:29:22.330Z,25.80
2023-05-09T05:31:48.970Z,23.00
2023-05-09T05:34:16.783Z,19.90
2023-05-09T05:36:44.073Z,16.70
2023-05-09T05:39:10.874Z,22.20
2023-05-09T05:41:37.409Z,17.20
2023-05-09T05:44:05.082Z,17.60
2023-05-09T05:46:32.475Z,19.20
2023-05-09T05:48:59.577Z,19.00
2023-05-09T05:51:26.965Z,17.50
2023-05-09T05:53:53.494Z,19.00
2023-05-09T05:56:20.692Z,17.00
2023-05-09T05:58:47.399Z,20.10
2023-05-09T06:01:14.589Z,23.70
2023-05-09T06:03:41.231Z,18.40
2023-05-09T06:06:09.465Z,18.90
2023-05-09T06:08:36.024Z,16.30
2023-05-09T06:11:02.951Z,14.90
2023-05-09T06:13:29.550Z,16.10
2023-05-09T06:16:14.968Z,14.70
2023-05-09T06:18:48.025Z,16.60
2023-05-09T06:21:14.605Z,11.90
2023-05-09T06:23:56.869Z,11.30
2023-05-09T06:26:27.627Z,9.80
2023-05-09T06:28:54.151Z,11.70
2023-05-09T06:31:21.136Z,8.80
2023-05-09T06:33:48.542Z,6.70
2023-05-09T06:36:15.327Z,5.80
2023-05-09T06:38:41.857Z,5.40
2023-05-09T06:41:08.382Z,6.90
2023-05-09T06:43:34.910Z,8.60
2023-05-09T06:46:02.439Z,4.40
2023-05-09T06:48:28.971Z,5.10
2023-05-09T06:50:55.591Z,3.40
2023-05-09T06:53:22.608Z,5.50
2023-05-09T06:55:49.349Z,4.60
2023-05-09T06:58:16.079Z,4.90
2023-05-09T07:00:42.750Z,5.50
2023-05-09T07:03:10.577Z,3.90
2023-05-09T07:05:37.207Z,7.50
2023-05-09T07:08:04.180Z,3.50
2023-05-09T07:10:31.192Z,6.00
2023-05-09T07:12:58.106Z,5.90
2023-05-09T07:15:39.742Z,3.90
2023-05-09T07:18:08.119Z,3.50
2023-05-09T07:20:34.957Z,2.60
2023-05-09T07:23:04.092Z,2.80
2023-05-09T07:25:34.535Z,3.80
2023-05-09T07:28:01.112Z,2.70
2023-05-09T07:30:27.918Z,2.50
2023-05-09T07:32:54.562Z,4.40
2023-05-09T07:35:21.773Z,3.80
2023-05-09T07:37:48.505Z,2.10
2023-05-09T07:40:15.625Z,4.40
2023-05-09T07:42:49.915Z,4.40
2023-05-09T07:45:17.524Z,3.10
2023-05-09T07:47:45.007Z,2.60
2023-05-09T07:50:11.564Z,4.70
2023-05-09T07:52:38.243Z,5.60
2023-05-09T07:55:05.483Z,1.60
2023-05-09T07:57:32.305Z,4.00
2023-05-09T07:59:58.892Z,7.00
2023-05-09T08:02:25.720Z,1.70
2023-05-09T08:04:52.484Z,4.10
2023-05-09T08:07:19.049Z,2.70
2023-05-09T08:09:45.827Z,3.10
2023-05-09T08:12:12.735Z,3.30
2023-05-09T08:14:39.422Z,2.80
2023-05-09T08:17:06.122Z,3.70
2023-05-09T08:19:32.701Z,2.60
2023-05-09T08:21:59.507Z,2.80
2023-05-09T08:24:26.511Z,3.10
2023-05-09T08:26:53.097Z,2.00
2023-05-09T08:29:19.692Z,2.30
2023-05-09T08:31:46.365Z,1.80
2023-05-09T08:34:13.002Z,2.50
2023-05-09T08:36:41.008Z,3.50
2023-05-09T08:39:08.753Z,5.80
2023-05-09T08:41:36.242Z,2.30
2023-05-09T08:44:04.176Z,3.20
2023-05-09T08:46:41.878Z,3.60
2023-05-09T08:49:09.340Z,4.90
2023-05-09T08:51:37.147Z,2.20
2023-05-09T08:54:04.331Z,3.30
2023-05-09T08:56:31.640Z,2.30
2023-05-09T08:58:59.068Z,3.90
2023-05-09T09:01:27.024Z,4.40
2023-05-09T09:03:54.242Z,3.40
2023-05-09T09:06:23.434Z,2.20
2023-05-09T09:08:50.576Z,3.20
2023-05-09T09:11:18.677Z,3.40
2023-05-09T09:13:46.965Z,2.40
2023-05-09T09:16:20.622Z,3.30
2023-05-09T09:18:48.271Z,3.20
2023-05-09T09:21:19.308Z,1.80
2023-05-09T09:23:47.665Z,3.40
2023-05-09T09:26:14.997Z,3.10
2023-05-09T09:28:42.663Z,2.20
2023-05-09T09:31:26.292Z,2.70
2023-05-09T09:33:59.488Z,5.00
2023-05-09T09:36:28.117Z,3.30
2023-05-09T09:39:04.769Z,3.80
2023-05-09T09:41:31.866Z,8.50
2023-05-09T09:43:58.925Z,2.20
2023-05-09T09:46:26.154Z,1.80
2023-05-09T09:48:56.833Z,2.30
2023-05-09T09:51:27.652Z,4.90
2023-05-09T09:53:56.964Z,3.70
2023-05-09T09:56:45.730Z,6.10
2023-05-09T09:59:17.437Z,3.50
2023-05-09T10:02:07.840Z,2.40
2023-05-09T10:04:37.034Z,4.50
2023-05-09T10:07:06.339Z,3.30
2023-05-09T10:12:06.484Z,7.20
2023-05-09T10:14:35.812Z,3.60
2023-05-09T10:17:05.444Z,3.50
2023-05-09T10:19:32.957Z,3.40
2023-05-09T10:22:05.315Z,2.00
2023-05-09T10:24:42.184Z,2.10
2023-05-09T10:27:13.060Z,3.40
2023-05-09T10:29:46.469Z,3.10
2023-05-09T10:32:28.071Z,2.40
2023-05-09T10:35:05.857Z,2.20
2023-05-09T10:37:33.704Z,3.60
2023-05-09T10:40:05.117Z,2.80
2023-05-09T10:42:32.116Z,2.40
2023-05-09T10:44:58.661Z,2.90
2023-05-09T10:47:29.717Z,1.80
2023-05-09T10:49:57.741Z,2.80
2023-05-09T10:52:24.333Z,3.10
2023-05-09T10:55:02.028Z,3.20
2023-05-09T10:57:30.368Z,3.00
2023-05-09T10:59:58.714Z,2.80
2023-05-09T11:02:33.969Z,2.40
2023-05-09T11:05:17.573Z,3.40
2023-05-09T11:07:44.308Z,2.80
2023-05-09T11:10:15.189Z,4.90
2023-05-09T11:12:59.500Z,2.00
2023-05-09T11:15:27.911Z,3.40
2023-05-09T11:18:11.021Z,2.10
2023-05-09T11:20:46.463Z,2.20
2023-05-09T11:23:17.548Z,5.00
2023-05-09T11:25:47.757Z,2.20
2023-05-09T11:28:28.815Z,3.60
2023-05-09T11:31:10.062Z,2.40
2023-05-09T11:33:38.125Z,3.30
2023-05-09T11:36:38.601Z,4.30
2023-05-09T11:39:05.494Z,3.30
2023-05-09T11:41:39.528Z,2.20
2023-05-09T11:44:20.547Z,2.70
2023-05-09T11:46:49.270Z,3.50
2023-05-09T11:49:17.394Z,1.90
2023-05-09T11:51:44.244Z,3.10
2023-05-09T11:54:12.399Z,2.50
2023-05-09T11:56:41.811Z,3.10
2023-05-09T11:59:10.692Z,4.00
2023-05-09T12:01:37.757Z,2.00
2023-05-09T12:04:07.367Z,2.90
2023-05-09T12:06:34.309Z,4.00
2023-05-09T12:09:00.956Z,2.50
2023-05-09T12:11:32.400Z,3.50
2023-05-09T12:13:59.345Z,2.70
2023-05-09T12:16:26.144Z,1.90
2023-05-09T12:18:53.205Z,3.80
2023-05-09T12:21:20.478Z,2.50
2023-05-09T12:23:50.688Z,4.90
2023-05-09T12:26:18.296Z,2.00
2023-05-09T12:28:45.922Z,2.10
2023-05-09T12:31:13.241Z,5.90
2023-05-09T12:33:40.607Z,4.40
2023-05-09T12:36:09.677Z,3.40
2023-05-09T12:38:37.532Z,2.60
2023-05-09T12:41:18.203Z,2.20
2023-05-09T12:43:50.220Z,3.40
2023-05-09T12:46:21.279Z,1.80
2023-05-09T12:48:49.499Z,2.80
2023-05-09T12:51:20.932Z,1.70
2023-05-09T12:53:47.785Z,2.80
2023-05-09T12:56:17.689Z,3.40
2023-05-09T12:58:51.366Z,3.60
2023-05-09T13:01:19.714Z,5.30
2023-05-09T13:03:52.099Z,3.80
2023-05-09T13:06:19.130Z,4.80
2023-05-09T13:08:59.280Z,3.10
2023-05-09T13:11:25.864Z,4.70
2023-05-09T13:13:54.539Z,4.80
2023-05-09T13:16:21.237Z,2.60
2023-05-09T13:18:48.351Z,4.20
2023-05-09T13:21:14.840Z,3.70
2023-05-09T13:23:42.336Z,2.50
2023-05-09T13:26:10.476Z,3.00
2023-05-09T13:28:37.092Z,4.40
2023-05-09T13:31:04.119Z,2.50
2023-05-09T13:33:30.848Z,3.40
2023-05-09T13:35:57.650Z,1.60
2023-05-09T13:38:24.377Z,6.00
2023-05-09T13:40:51.667Z,2.40
2023-05-09T13:43:18.370Z,2.50
2023-05-09T13:45:45.142Z,6.40
2023-05-09T13:48:11.953Z,2.90
2023-05-09T13:50:38.749Z,6.10
2023-05-09T13:53:05.563Z,1.90
2023-05-09T13:55:32.646Z,2.80
2023-05-09T13:57:59.240Z,4.10
2023-05-09T14:00:26.693Z,2.00
2023-05-09T14:02:53.660Z,2.10
2023-05-09T14:05:20.250Z,4.30
2023-05-09T14:07:47.646Z,5.60
2023-05-09T14:10:14.405Z,1.90
2023-05-09T14:12:44.156Z,2.50
2023-05-09T14:17:37.968Z,2.50
2023-05-09T14:20:05.119Z,2.30
2023-05-09T14:22:31.738Z,8.00
2023-05-09T14:24:58.788Z,4.70
2023-05-09T14:27:26.299Z,4.80
2023-05-09T14:29:53.277Z,3.90
2023-05-09T14:32:19.835Z,5.00
2023-05-09T14:34:49.469Z,1.80
2023-05-09T14:37:16.898Z,3.40
2023-05-09T14:39:45.338Z,6.30
2023-05-09T14:42:14.032Z,3.80
2023-05-09T14:44:41.325Z,7.90
2023-05-09T14:47:09.478Z,4.70
2023-05-09T14:49:38.753Z,7.30
2023-05-09T14:52:05.927Z,3.00
2023-05-09T14:54:32.675Z,3.60
2023-05-09T14:56:59.621Z,3.40
2023-05-09T14:59:26.329Z,2.40
2023-05-09T15:01:52.987Z,2.70
2023-05-09T15:04:19.817Z,3.40
2023-05-09T15:06:46.420Z,5.50
2023-05-09T15:09:13.873Z,4.40
2023-05-09T15:11:47.507Z,3.50
2023-05-09T15:14:16.830Z,6.40
2023-05-09T15:16:44.138Z,3.40
2023-05-09T15:19:11.045Z,6.00
2023-05-09T15:21:37.695Z,6.40
2023-05-09T15:24:04.904Z,5.30
2023-05-09T15:26:32.088Z,5.90
2023-05-09T15:28:58.757Z,4.90
2023-05-09T15:31:25.955Z,3.70
2023-05-09T15:33:52.616Z,3.10
2023-05-09T15:36:19.419Z,6.10
2023-05-09T15:38:49.440Z,4.80
2023-05-09T15:41:16.766Z,4.20
2023-05-09T15:43:43.678Z,2.50
2023-05-09T15:46:10.599Z,3.60
2023-05-09T15:48:37.436Z,4.20
2023-05-09T15:51:04.265Z,4.40
2023-05-09T15:53:31.164Z,5.50
2023-05-09T15:55:57.887Z,5.10
2023-05-09T15:58:24.475Z,4.80
2023-05-09T16:00:51.198Z,3.00
2023-05-09T16:03:18.740Z,4.30
2023-05-09T16:05:45.605Z,3.30
2023-05-09T16:08:12.615Z,5.00
2023-05-09T16:10:39.220Z,5.90
2023-05-09T16:13:05.901Z,7.70
2023-05-09T16:15:32.899Z,2.20
2023-05-09T16:17:59.535Z,4.00
2023-05-09T16:20:26.168Z,4.20
2023-05-09T16:22:52.666Z,6.30
2023-05-09T16:25:19.452Z,5.80
2023-05-09T16:27:46.137Z,6.20
2023-05-09T16:30:13.742Z,14.90
2023-05-09T16:32:40.721Z,6.10
2023-05-09T16:35:07.995Z,4.00
2023-05-09T16:37:35.662Z,5.00
2023-05-09T16:40:02.855Z,7.80
2023-05-09T16:42:29.861Z,7.70
2023-05-09T16:44:57.522Z,8.10
2023-05-09T16:47:24.154Z,5.90
2023-05-09T16:49:50.959Z,6.30
2023-05-09T16:52:17.686Z,7.00
2023-05-09T16:54:44.185Z,4.20
2023-05-09T16:57:10.850Z,6.30
2023-05-09T16:59:37.794Z,4.90
2023-05-09T17:02:04.572Z,3.90
2023-05-09T17:04:31.605Z,5.20
2023-05-09T17:06:58.412Z,4.20
2023-05-09T17:09:25.397Z,4.80
2023-05-09T17:11:52.106Z,6.40
2023-05-09T17:14:18.899Z,5.90
2023-05-09T17:16:45.632Z,7.50
2023-05-09T17:19:12.420Z,8.60
2023-05-09T17:21:41.771Z,3.30
2023-05-09T17:24:09.563Z,6.80
2023-05-09T17:26:36.241Z,7.70
2023-05-09T17:29:03.802Z,8.40
2023-05-09T17:31:31.432Z,17.10
2023-05-09T17:33:58.083Z,10.80
2023-05-09T17:36:25.776Z,16.20
2023-05-09T17:38:52.919Z,33.40
2023-05-09T17:41:19.685Z,47.90
2023-05-09T17:43:46.431Z,117.50
2023-05-09T17:46:14.848Z,137.30
2023-05-09T17:48:42.109Z,99.70
2023-05-09T17:51:09.124Z,79.30
2023-05-09T17:53:35.759Z,74.90
2023-05-09T17:56:02.439Z,94.30
2023-05-09T17:58:29.939Z,138.40
2023-05-09T18:00:58.720Z,154.50
2023-05-09T18:03:29.122Z,128.50
2023-05-09T18:05:55.982Z,107.10
2023-05-09T18:08:22.644Z,105.50
2023-05-09T18:10:49.797Z,99.00
2023-05-09T18:13:17.184Z,200.30
2023-05-09T18:15:43.967Z,141.80
2023-05-09T18:18:12.904Z,135.30
2023-05-09T18:20:42.134Z,75.30
2023-05-09T18:23:08.716Z,56.40
2023-05-09T18:25:35.309Z,72.30
2023-05-09T18:28:01.842Z,70.40
2023-05-09T18:30:28.896Z,67.30
2023-05-09T18:32:59.991Z,52.00
2023-05-09T18:35:26.789Z,39.00
2023-05-09T18:37:53.777Z,36.30
2023-05-09T18:40:20.385Z,29.80
2023-05-09T18:42:47.290Z,33.10
2023-05-09T18:45:14.100Z,29.40
2023-05-09T18:47:40.740Z,25.70
2023-05-09T18:50:08.110Z,26.70
2023-05-09T18:52:35.023Z,23.60
2023-05-09T18:55:01.684Z,20.20
2023-05-09T18:57:28.342Z,20.90
2023-05-09T18:59:56.001Z,18.80
2023-05-09T19:02:23.614Z,20.30
2023-05-09T19:04:51.499Z,21.20
2023-05-09T19:07:18.516Z,22.10
2023-05-09T19:09:45.833Z,23.60
2023-05-09T19:12:12.472Z,28.00
2023-05-09T19:14:39.067Z,29.80
2023-05-09T19:17:05.981Z,26.80
2023-05-09T19:19:33.104Z,25.30
2023-05-09T19:22:01.813Z,24.70
2023-05-09T19:24:28.499Z,22.10
2023-05-09T19:26:55.359Z,22.40
2023-05-09T19:29:22.015Z,19.40
2023-05-09T19:31:48.638Z,24.20
2023-05-09T19:34:15.413Z,37.40
2023-05-09T19:36:41.988Z,37.30
2023-05-09T19:39:09.165Z,64.20
2023-05-09T19:41:35.972Z,91.90
2023-05-09T19:44:02.789Z,181.70
2023-05-09T19:46:29.883Z,205.30
2023-05-09T19:48:56.796Z,167.50
2023-05-09T19:51:23.488Z,228.30
2023-05-09T19:53:53.081Z,78.80
2023-05-09T19:56:23.243Z,39.60
2023-05-09T19:58:50.441Z,30.50
2023-05-09T20:01:19.174Z,31.00
2023-05-09T20:03:52.878Z,35.10
2023-05-09T20:06:19.740Z,40.70
2023-05-09T20:08:47.722Z,36.60
2023-05-09T20:11:14.985Z,30.00
2023-05-09T20:13:43.175Z,27.00
2023-05-09T20:16:10.046Z,32.30
2023-05-09T20:18:36.916Z,23.40
2023-05-09T20:21:04.191Z,25.00
2023-05-09T20:23:31.465Z,24.60
2023-05-09T20:25:58.358Z,25.00
2023-05-09T20:28:25.479Z,28.30
2023-05-09T20:30:52.186Z,30.00
2023-05-09T20:33:19.278Z,26.00
2023-05-09T20:35:45.983Z,28.20
2023-05-09T20:38:12.663Z,29.70
2023-05-09T20:40:40.412Z,27.90
2023-05-09T20:43:07.141Z,27.90
2023-05-09T20:45:37.499Z,29.70
2023-05-09T20:48:05.828Z,31.70
2023-05-09T20:50:32.588Z,26.00
2023-05-09T20:52:59.418Z,22.40
2023-05-09T20:55:26.018Z,25.60
2023-05-09T20:57:52.958Z,24.90
2023-05-09T21:00:21.383Z,28.60
2023-05-09T21:02:48.481Z,22.30
2023-05-09T21:05:16.723Z,22.90
2023-05-09T21:07:43.973Z,25.60
2023-05-09T21:10:12.059Z,23.60
2023-05-09T21:12:38.894Z,24.90
2023-05-09T21:15:08.575Z,26.40
2023-05-09T21:17:35.542Z,28.10
2023-05-09T21:20:04.554Z,26.40
2023-05-09T21:22:34.434Z,32.90
2023-05-09T21:25:01.251Z,39.90
2023-05-09T21:27:30.341Z,42.40
2023-05-09T21:29:57.462Z,38.70
2023-05-09T21:32:24.166Z,35.20
2023-05-09T21:34:51.089Z,31.50
2023-05-09T21:37:17.664Z,25.30
2023-05-09T21:39:45.258Z,26.60
2023-05-09T21:42:12.471Z,25.90
2023-05-09T21:44:39.056Z,25.40
2023-05-09T21:47:05.913Z,25.80
2023-05-09T21:49:32.715Z,22.90
2023-05-09T21:52:02.267Z,24.50
2023-05-09T21:54:28.917Z,25.90
2023-05-09T21:56:55.445Z,22.20
2023-05-09T21:59:22.401Z,24.00
2023-05-09T22:01:49.420Z,23.60
2023-05-09T22:04:16.298Z,21.20
2023-05-09T22:06:43.003Z,24.90
2023-05-09T22:09:10.649Z,17.00
2023-05-09T22:11:37.816Z,20.70
2023-05-09T22:14:04.584Z,18.80
2023-05-09T22:16:31.436Z,19.10
2023-05-09T22:18:58.492Z,19.50
2023-05-09T22:21:25.527Z,19.30
2023-05-09T22:23:52.210Z,16.50
2023-05-09T22:26:18.836Z,19.30
2023-05-09T22:28:45.554Z,15.80
2023-05-09T22:31:12.313Z,14.40
2023-05-09T22:33:38.834Z,14.60
2023-05-09T22:36:06.898Z,17.50
2023-05-09T22:38:33.570Z,18.30
2023-05-09T22:41:00.245Z,17.90
2023-05-09T22:43:28.928Z,15.60
2023-05-09T22:46:03.684Z,15.70
2023-05-09T22:48:30.317Z,14.00
2023-05-09T22:50:56.923Z,13.70
2023-05-09T22:53:23.687Z,14.90
2023-05-09T22:55:51.384Z,12.80
2023-05-09T22:58:18.666Z,15.90
2023-05-09T23:00:45.303Z,14.30
2023-05-09T23:03:12.015Z,15.60
2023-05-09T23:05:38.772Z,16.90
2023-05-09T23:08:05.463Z,14.80
2023-05-09T23:10:33.788Z,13.00
2023-05-09T23:13:00.476Z,15.90
2023-05-09T23:15:27.177Z,15.00
2023-05-09T23:17:53.719Z,15.30
2023-05-09T23:20:20.437Z,14.20
2023-05-09T23:22:46.996Z,13.70
2023-05-09T23:25:13.515Z,15.20
2023-05-09T23:27:40.827Z,14.80
2023-05-09T23:30:09.763Z,13.00
2023-05-09T23:32:36.859Z,14.70
2023-05-09T23:35:04.850Z,10.90
2023-05-09T23:37:32.150Z,12.80
2023-05-09T23:39:58.859Z,14.30
2023-05-09T23:42:25.492Z,10.60
2023-05-09T23:44:52.202Z,13.30
2023-05-09T23:47:18.840Z,14.90
2023-05-09T23:49:45.601Z,13.30
2023-05-09T23:52:12.210Z,12.00
2023-05-09T23:54:39.869Z,12.60
2023-05-09T23:57:06.436Z,12.70
2023-05-09T23:59:33.089Z,12.00
